createdAt,value
2023-04-15T00:01:49.264Z,29.27
2023-04-15T00:04:16.520Z,24.73
2023-04-15T00:06:43.460Z,24.08
2023-04-15T00:09:10.331Z,24.27
2023-04-15T00:11:37.218Z,22.00
2023-04-15T00:14:04.611Z,25.83
2023-04-15T00:16:31.596Z,24.52
2023-04-15T00:18:59.324Z,24.67
2023-04-15T00:21:27.668Z,24.73
2023-04-15T00:23:54.892Z,23.65
2023-04-15T00:26:22.322Z,24.77
2023-04-15T00:28:49.324Z,22.90
2023-04-15T00:31:16.509Z,23.65
2023-04-15T00:33:43.850Z,20.27
2023-04-15T00:36:11.313Z,25.23
2023-04-15T00:38:38.683Z,23.10
2023-04-15T00:41:05.868Z,24.05
2023-04-15T00:43:32.778Z,24.60
2023-04-15T00:46:01.105Z,26.00
2023-04-15T00:48:28.862Z,25.20
2023-04-15T00:50:55.842Z,26.77
2023-04-15T00:53:22.748Z,30.17
2023-04-15T00:55:50.169Z,26.60
2023-04-15T00:58:18.296Z,23.17
2023-04-15T01:00:46.126Z,28.25
2023-04-15T01:03:13.179Z,24.05
2023-04-15T01:05:40.293Z,24.52
2023-04-15T01:08:07.403Z,27.10
2023-04-15T01:10:34.336Z,25.77
2023-04-15T01:13:01.237Z,26.33
2023-04-15T01:15:28.156Z,28.38
2023-04-15T01:17:55.336Z,26.05
2023-04-15T01:20:22.376Z,27.27
2023-04-15T01:22:50.156Z,27.88
2023-04-15T01:25:27.259Z,27.55
2023-04-15T01:27:54.282Z,25.45
2023-04-15T01:30:22.030Z,24.42
2023-04-15T01:32:48.992Z,28.45
2023-04-15T01:35:15.987Z,25.88
2023-04-15T01:37:43.096Z,21.05
2023-04-15T01:40:10.248Z,24.13
2023-04-15T01:42:37.654Z,21.60
2023-04-15T01:45:05.407Z,24.67
2023-04-15T01:47:32.340Z,22.25
2023-04-15T01:49:59.263Z,24.52
2023-04-15T01:52:26.348Z,22.60
2023-04-15T01:54:53.223Z,24.20
2023-04-15T01:57:20.077Z,21.90
2023-04-15T01:59:47.217Z,25.50
2023-04-15T02:02:14.133Z,22.60
2023-04-15T02:04:41.048Z,21.50
2023-04-15T02:07:08.648Z,23.05
2023-04-15T02:09:35.569Z,26.27
2023-04-15T02:12:02.490Z,22.80
2023-04-15T02:14:29.393Z,23.33
2023-04-15T02:16:56.588Z,22.65
2023-04-15T02:19:23.728Z,26.15
2023-04-15T02:21:50.619Z,25.98
2023-04-15T02:24:17.471Z,22.27
2023-04-15T02:26:44.513Z,26.45
2023-04-15T02:29:11.520Z,23.15
2023-04-15T02:31:40.668Z,26.70
2023-04-15T02:34:08.304Z,23.02
2023-04-15T02:36:35.390Z,20.83
2023-04-15T02:39:03.141Z,20.13
2023-04-15T02:41:30.559Z,24.55
2023-04-15T02:43:57.496Z,18.90
2023-04-15T02:46:24.614Z,23.40
2023-04-15T02:48:51.571Z,20.75
2023-04-15T02:51:20.427Z,19.73
2023-04-15T02:53:50.723Z,21.85
2023-04-15T02:56:19.480Z,18.98
2023-04-15T02:58:46.518Z,22.98
2023-04-15T03:02:09.785Z,25.35
2023-04-15T03:04:36.760Z,20.30
2023-04-15T03:07:03.691Z,21.05
2023-04-15T03:09:30.691Z,20.83
2023-04-15T03:11:57.636Z,20.83
2023-04-15T03:14:24.701Z,23.55
2023-04-15T03:16:52.145Z,21.98
2023-04-15T03:19:19.139Z,22.55
2023-04-15T03:21:46.127Z,22.45
2023-04-15T03:24:13.055Z,20.13
2023-04-15T03:26:40.189Z,21.35
2023-04-15T03:29:07.134Z,22.10
2023-04-15T03:31:34.163Z,19.80
2023-04-15T03:34:01.238Z,23.38
2023-04-15T03:36:31.443Z,22.73
2023-04-15T03:38:58.831Z,22.88
2023-04-15T03:41:26.584Z,22.05
2023-04-15T03:43:53.503Z,22.55
2023-04-15T03:46:20.617Z,20.30
2023-04-15T03:48:48.271Z,22.27
2023-04-15T03:51:15.206Z,19.73
2023-04-15T03:53:42.123Z,22.77
2023-04-15T03:56:09.003Z,22.10
2023-04-15T03:58:36.022Z,26.90
2023-04-15T04:01:03.043Z,27.30
2023-04-15T04:03:30.319Z,23.67
2023-04-15T04:05:57.468Z,22.23
2023-04-15T04:08:24.360Z,24.27
2023-04-15T04:10:51.541Z,23.92
2023-04-15T04:13:18.447Z,22.08
2023-04-15T04:15:45.378Z,23.52
2023-04-15T04:18:12.583Z,27.73
2023-04-15T04:20:39.526Z,21.40
2023-04-15T04:23:06.758Z,23.33
2023-04-15T04:25:33.655Z,24.52
2023-04-15T04:28:00.783Z,24.65
2023-04-15T04:30:27.702Z,27.95
2023-04-15T04:32:54.722Z,22.75
2023-04-15T04:35:22.073Z,24.02
2023-04-15T04:37:48.969Z,22.52
2023-04-15T04:40:16.311Z,23.13
2023-04-15T04:42:43.212Z,21.90
2023-04-15T04:45:10.331Z,29.13
2023-04-15T04:47:37.273Z,25.65
2023-04-15T04:50:04.487Z,26.17
2023-04-15T04:52:31.902Z,23.95
2023-04-15T04:54:58.814Z,22.40
2023-04-15T04:57:25.690Z,25.70
2023-04-15T04:59:52.665Z,32.40
2023-04-15T05:02:19.705Z,29.88
2023-04-15T05:04:46.764Z,26.17
2023-04-15T05:07:13.827Z,25.98
2023-04-15T05:09:41.019Z,34.97
2023-04-15T05:12:09.308Z,28.02
2023-04-15T05:14:36.386Z,35.05
2023-04-15T05:17:03.536Z,36.65
2023-04-15T05:19:30.556Z,25.63
2023-04-15T05:21:57.495Z,23.30
2023-04-15T05:24:24.524Z,24.88
2023-04-15T05:26:51.565Z,23.30
2023-04-15T05:29:18.559Z,24.20
2023-04-15T05:31:45.734Z,28.05
2023-04-15T05:34:12.799Z,23.20
2023-04-15T05:36:39.986Z,27.35
2023-04-15T05:39:07.300Z,21.55
2023-04-15T05:41:34.715Z,22.27
2023-04-15T05:44:02.162Z,23.42
2023-04-15T05:46:29.120Z,23.38
2023-04-15T05:48:56.718Z,22.23
2023-04-15T05:51:23.815Z,25.27
2023-04-15T05:53:50.809Z,23.33
2023-04-15T05:56:17.738Z,21.80
2023-04-15T05:58:44.750Z,24.60
2023-04-15T06:01:11.833Z,25.00
2023-04-15T06:03:39.852Z,22.02
2023-04-15T06:06:07.837Z,24.05
2023-04-15T06:08:34.790Z,23.63
2023-04-15T06:11:01.741Z,23.27
2023-04-15T06:13:29.229Z,22.15
2023-04-15T06:15:56.216Z,23.30
2023-04-15T06:18:23.134Z,19.65
2023-04-15T06:20:50.108Z,21.55
2023-04-15T06:23:17.186Z,19.90
2023-04-15T06:25:44.198Z,20.38
2023-04-15T06:28:11.274Z,25.65
2023-04-15T06:30:39.245Z,21.67
2023-04-15T06:33:06.426Z,21.30
2023-04-15T06:35:33.362Z,21.33
2023-04-15T06:38:00.365Z,18.80
2023-04-15T06:40:27.948Z,22.05
2023-04-15T06:42:55.723Z,18.15
2023-04-15T06:45:22.862Z,20.50
2023-04-15T06:47:49.878Z,19.98
2023-04-15T06:50:16.831Z,18.95
2023-04-15T06:52:43.833Z,18.60
2023-04-15T06:55:11.001Z,19.27
2023-04-15T07:01:26.744Z,17.40
2023-04-15T07:03:53.733Z,20.00
2023-04-15T07:06:22.028Z,19.17
2023-04-15T07:08:48.930Z,19.48
2023-04-15T07:11:16.062Z,17.77
2023-04-15T07:17:31.077Z,20.35
2023-04-15T07:19:58.301Z,15.68
2023-04-15T07:22:26.317Z,17.05
2023-04-15T07:24:53.252Z,16.27
2023-04-15T07:27:20.333Z,17.98
2023-04-15T07:29:47.557Z,18.40
2023-04-15T07:32:14.467Z,19.30
2023-04-15T07:34:42.337Z,17.77
2023-04-15T07:37:09.887Z,22.38
2023-04-15T07:39:37.299Z,15.73
2023-04-15T07:42:04.773Z,20.02
2023-04-15T07:44:31.863Z,18.63
2023-04-15T07:46:59.042Z,19.05
2023-04-15T07:49:26.228Z,17.95
2023-04-15T07:51:53.813Z,17.67
2023-04-15T07:54:21.002Z,16.05
2023-04-15T07:56:47.897Z,15.70
2023-04-15T07:59:17.868Z,19.25
2023-04-15T08:01:45.179Z,20.17
2023-04-15T08:04:12.228Z,18.77
2023-04-15T08:06:40.206Z,18.73
2023-04-15T08:09:08.272Z,16.10
2023-04-15T08:11:35.282Z,18.02
2023-04-15T08:14:02.290Z,17.52
2023-04-15T08:16:29.750Z,18.40
2023-04-15T08:18:57.985Z,16.13
2023-04-15T08:21:25.407Z,15.88
2023-04-15T08:23:53.806Z,17.92
2023-04-15T08:26:21.817Z,18.65
2023-04-15T08:28:49.112Z,14.02
2023-04-15T08:31:17.656Z,17.08
2023-04-15T08:33:45.008Z,15.05
2023-04-15T08:36:12.250Z,17.08
2023-04-15T08:38:39.275Z,14.07
2023-04-15T08:41:27.305Z,19.67
2023-04-15T08:43:58.211Z,17.33
2023-04-15T08:46:25.660Z,16.95
2023-04-15T08:48:54.080Z,14.13
2023-04-15T08:51:21.809Z,15.93
2023-04-15T08:53:50.990Z,15.60
2023-04-15T08:56:22.890Z,16.67
2023-04-15T08:58:50.707Z,17.85
2023-04-15T09:01:17.817Z,17.75
2023-04-15T09:03:45.282Z,17.13
2023-04-15T09:06:12.349Z,16.02
2023-04-15T09:08:39.302Z,18.40
2023-04-15T09:14:48.240Z,15.38
2023-04-15T09:17:19.904Z,17.92
2023-04-15T09:19:46.866Z,18.67
2023-04-15T09:22:14.492Z,15.45
2023-04-15T09:24:43.454Z,17.05
2023-04-15T09:27:11.266Z,18.08
2023-04-15T09:29:38.598Z,16.40
2023-04-15T09:36:04.886Z,17.30
2023-04-15T09:38:32.653Z,16.58
2023-04-15T09:40:59.802Z,19.25
2023-04-15T09:43:40.505Z,18.92
2023-04-15T09:46:07.731Z,16.25
2023-04-15T09:48:34.686Z,19.40
2023-04-15T09:51:02.410Z,17.05
2023-04-15T09:53:31.711Z,17.58
2023-04-15T09:56:03.547Z,14.90
2023-04-15T09:58:33.515Z,14.20
2023-04-15T10:01:02.007Z,18.00
2023-04-15T10:03:30.122Z,17.35
2023-04-15T10:05:59.607Z,17.65
2023-04-15T10:08:29.576Z,20.13
2023-04-15T10:10:57.897Z,16.10
2023-04-15T10:13:28.761Z,17.85
2023-04-15T10:16:04.463Z,13.77
2023-04-15T10:18:35.078Z,14.90
2023-04-15T10:21:02.452Z,16.90
2023-04-15T10:23:31.226Z,15.70
2023-04-15T10:25:59.014Z,15.48
2023-04-15T10:28:26.833Z,18.30
2023-04-15T10:30:54.411Z,20.80
2023-04-15T10:33:23.865Z,17.25
2023-04-15T10:35:52.822Z,17.42
2023-04-15T10:38:35.836Z,18.13
2023-04-15T10:41:17.786Z,19.08
2023-04-15T10:44:02.993Z,15.63
2023-04-15T10:46:46.010Z,17.87
2023-04-15T10:49:14.812Z,17.75
2023-04-15T10:51:51.188Z,15.88
2023-04-15T10:54:32.582Z,15.27
2023-04-15T10:57:06.054Z,13.82
2023-04-15T10:59:37.136Z,15.03
2023-04-15T11:02:08.363Z,16.17
2023-04-15T11:04:58.322Z,12.02
2023-04-15T11:07:40.643Z,17.10
2023-04-15T11:10:25.851Z,14.15
2023-04-15T11:13:01.304Z,16.63
2023-04-15T11:15:38.994Z,16.65
2023-04-15T11:18:17.179Z,16.00
2023-04-15T11:20:47.373Z,15.63
2023-04-15T11:23:28.894Z,14.50
2023-04-15T11:25:57.882Z,16.65
2023-04-15T11:28:29.399Z,14.98
2023-04-15T11:30:57.256Z,14.20
2023-04-15T11:33:25.123Z,12.63
2023-04-15T11:35:57.811Z,15.77
2023-04-15T11:38:24.921Z,13.68
2023-04-15T11:40:54.632Z,13.32
2023-04-15T11:43:23.602Z,14.32
2023-04-15T11:46:00.436Z,13.65
2023-04-15T11:48:29.867Z,15.45
2023-04-15T11:51:04.752Z,11.40
2023-04-15T11:53:44.620Z,12.80
2023-04-15T11:56:17.583Z,15.68
2023-04-15T11:58:46.462Z,14.73
2023-04-15T12:01:13.871Z,13.30
2023-04-15T12:03:44.098Z,12.07
2023-04-15T12:06:19.122Z,14.27
2023-04-15T12:08:50.014Z,13.98
2023-04-15T12:11:21.672Z,12.90
2023-04-15T12:13:50.444Z,14.52
2023-04-15T12:16:19.011Z,14.32
2023-04-15T12:18:47.342Z,14.57
2023-04-15T12:21:14.633Z,15.23
2023-04-15T12:23:52.187Z,13.57
2023-04-15T12:26:26.026Z,13.40
2023-04-15T12:29:12.862Z,12.27
2023-04-15T12:31:57.395Z,12.88
2023-04-15T12:34:28.596Z,10.80
2023-04-15T12:36:55.936Z,11.50
2023-04-15T12:39:30.463Z,11.43
2023-04-15T12:41:58.895Z,14.38
2023-04-15T12:44:26.234Z,14.50
2023-04-15T12:46:53.618Z,14.52
2023-04-15T12:49:24.461Z,12.32
2023-04-15T12:51:54.312Z,11.80
2023-04-15T12:54:22.160Z,11.80
2023-04-15T12:56:50.764Z,14.88
2023-04-15T12:59:18.813Z,12.60
2023-04-15T13:01:47.571Z,14.55
2023-04-15T13:04:15.607Z,14.10
2023-04-15T13:06:42.948Z,11.73
2023-04-15T13:09:09.952Z,17.38
2023-04-15T13:11:36.986Z,13.48
2023-04-15T13:14:09.029Z,13.15
2023-04-15T13:16:36.312Z,12.52
2023-04-15T13:19:04.208Z,15.00
2023-04-15T13:21:35.572Z,12.98
2023-04-15T13:24:04.277Z,15.15
2023-04-15T13:26:31.905Z,15.60
2023-04-15T13:28:59.210Z,14.13
2023-04-15T13:31:26.411Z,14.02
2023-04-15T13:33:53.482Z,16.88
2023-04-15T13:36:20.707Z,20.02
2023-04-15T13:38:49.806Z,15.80
2023-04-15T13:41:18.328Z,12.07
2023-04-15T13:43:45.216Z,12.85
2023-04-15T13:46:12.279Z,14.30
2023-04-15T13:48:39.256Z,16.02
2023-04-15T13:51:06.469Z,15.27
2023-04-15T13:53:39.093Z,12.73
2023-04-15T13:56:10.146Z,17.08
2023-04-15T13:58:37.871Z,14.60
2023-04-15T14:01:06.963Z,15.32
2023-04-15T14:03:36.915Z,15.18
2023-04-15T14:06:05.187Z,14.43
2023-04-15T14:08:32.149Z,14.73
2023-04-15T14:10:59.122Z,16.50
2023-04-15T14:13:26.041Z,14.73
2023-04-15T14:15:53.165Z,18.25
2023-04-15T14:18:20.350Z,16.88
2023-04-15T14:20:47.286Z,15.18
2023-04-15T14:23:14.242Z,15.35
2023-04-15T14:25:41.161Z,17.30
2023-04-15T14:28:08.112Z,23.02
2023-04-15T14:30:35.325Z,16.55
2023-04-15T14:33:02.632Z,17.23
2023-04-15T14:35:29.781Z,17.77
2023-04-15T14:37:56.915Z,14.20
2023-04-15T14:40:23.985Z,15.65
2023-04-15T14:42:50.971Z,15.18
2023-04-15T14:45:17.998Z,12.30
2023-04-15T14:47:45.501Z,16.67
2023-04-15T14:50:12.811Z,14.85
2023-04-15T14:52:39.796Z,16.02
2023-04-15T14:55:08.390Z,13.98
2023-04-15T14:57:36.112Z,13.73
2023-04-15T15:00:04.601Z,14.70
2023-04-15T15:02:39.161Z,21.30
2023-04-15T15:05:08.313Z,13.45
2023-04-15T15:07:37.412Z,12.18
2023-04-15T15:10:05.171Z,12.68
2023-04-15T15:12:33.219Z,14.70
2023-04-15T15:15:01.608Z,15.48
2023-04-15T15:17:30.238Z,14.13
2023-04-15T15:19:57.471Z,16.73
2023-04-15T15:22:25.947Z,14.48
2023-04-15T15:24:53.656Z,17.17
2023-04-15T15:27:20.832Z,21.48
2023-04-15T15:29:47.845Z,13.45
2023-04-15T15:32:14.879Z,13.73
2023-04-15T15:34:41.773Z,16.73
2023-04-15T15:37:08.757Z,12.88
2023-04-15T15:39:36.142Z,15.38
2023-04-15T15:42:03.570Z,15.98
2023-04-15T15:44:31.212Z,14.23
2023-04-15T15:46:58.996Z,14.05
2023-04-15T15:49:28.296Z,14.90
2023-04-15T15:51:56.359Z,13.02
2023-04-15T15:54:23.299Z,13.45
2023-04-15T15:56:50.325Z,15.20
2023-04-15T15:59:17.354Z,15.60
2023-04-15T16:01:44.518Z,16.00
2023-04-15T16:04:11.569Z,15.88
2023-04-15T16:06:38.720Z,16.52
2023-04-15T16:09:05.863Z,14.30
2023-04-15T16:11:33.009Z,14.98
2023-04-15T16:14:00.048Z,15.07
2023-04-15T16:16:27.004Z,15.65
2023-04-15T16:18:53.999Z,16.08
2023-04-15T16:21:21.000Z,16.58
2023-04-15T16:23:48.099Z,16.55
2023-04-15T16:26:15.049Z,17.60
2023-04-15T16:28:42.050Z,14.25
2023-04-15T16:31:10.691Z,14.13
2023-04-15T16:33:38.982Z,16.02
2023-04-15T16:36:06.123Z,12.30
2023-04-15T16:38:33.125Z,12.18
2023-04-15T16:41:01.588Z,12.05
2023-04-15T16:43:29.406Z,10.98
2023-04-15T16:45:56.713Z,13.13
2023-04-15T16:48:24.001Z,11.63
2023-04-15T16:50:50.956Z,14.05
2023-04-15T16:53:18.066Z,11.68
2023-04-15T16:55:45.011Z,12.02
2023-04-15T16:58:12.002Z,12.25
2023-04-15T17:00:38.947Z,11.48
2023-04-15T17:03:06.532Z,12.38
2023-04-15T17:05:33.894Z,10.70
2023-04-15T17:08:01.161Z,10.93
2023-04-15T17:10:28.460Z,13.55
2023-04-15T17:12:59.195Z,11.35
2023-04-15T17:15:26.509Z,10.82
2023-04-15T17:17:53.684Z,11.27
2023-04-15T17:20:20.836Z,12.25
2023-04-15T17:22:48.749Z,12.65
2023-04-15T17:25:15.762Z,13.82
2023-04-15T17:27:42.683Z,15.88
2023-04-15T17:30:10.057Z,13.68
2023-04-15T17:32:37.311Z,15.63
2023-04-15T17:35:06.643Z,12.95
2023-04-15T17:37:34.556Z,11.77
2023-04-15T17:40:02.060Z,15.00
2023-04-15T17:42:29.052Z,11.90
2023-04-15T17:44:56.004Z,11.60
2023-04-15T17:47:23.044Z,11.98
2023-04-15T17:49:50.202Z,11.20
2023-04-15T17:52:17.113Z,10.90
2023-04-15T17:54:44.007Z,10.50
2023-04-15T17:57:11.088Z,9.77
2023-04-15T17:59:38.048Z,7.93
2023-04-15T18:02:05.175Z,6.93
2023-04-15T18:04:32.770Z,7.38
2023-04-15T18:06:59.777Z,8.85
2023-04-15T18:09:27.839Z,8.73
2023-04-15T18:11:54.750Z,7.25
2023-04-15T18:14:33.571Z,6.63
2023-04-15T18:17:03.204Z,6.72
2023-04-15T18:19:31.033Z,6.53
2023-04-15T18:22:00.254Z,8.82
2023-04-15T18:24:27.941Z,8.40
2023-04-15T18:26:54.953Z,8.57
2023-04-15T18:29:22.099Z,6.40
2023-04-15T18:31:49.309Z,7.90
2023-04-15T18:34:16.297Z,9.10
2023-04-15T18:36:43.371Z,7.53
2023-04-15T18:39:10.713Z,9.68
2023-04-15T18:41:37.611Z,10.27
2023-04-15T18:44:05.049Z,10.50
2023-04-15T18:46:32.080Z,8.90
2023-04-15T18:48:59.052Z,9.77
2023-04-15T18:51:26.052Z,7.90
2023-04-15T18:53:53.026Z,9.13
2023-04-15T18:56:19.966Z,6.97
2023-04-15T18:59:19.416Z,5.95
2023-04-15T19:01:34.539Z,8.57
2023-04-15T19:04:02.501Z,7.25
2023-04-15T19:06:29.513Z,7.35
2023-04-15T19:08:58.728Z,6.15
2023-04-15T19:11:26.395Z,6.70
2023-04-15T19:13:53.483Z,7.45
2023-04-15T19:16:20.737Z,7.10
2023-04-15T19:18:47.694Z,6.38
2023-04-15T19:21:16.319Z,8.60
2023-04-15T19:23:43.622Z,7.88
2023-04-15T19:26:11.761Z,7.82
2023-04-15T19:28:39.004Z,8.18
2023-04-15T19:31:06.822Z,7.55
2023-04-15T19:33:34.218Z,8.02
2023-04-15T19:36:02.589Z,10.70
2023-04-15T19:38:30.651Z,12.10
2023-04-15T19:40:58.541Z,9.30
2023-04-15T19:43:25.480Z,11.68
2023-04-15T19:45:54.685Z,11.30
2023-04-15T19:48:22.574Z,10.75
2023-04-15T19:50:49.608Z,10.85
2023-04-15T19:53:16.529Z,13.57
2023-04-15T19:55:43.544Z,12.25
2023-04-15T19:58:10.527Z,14.95
2023-04-15T20:00:37.908Z,13.88
2023-04-15T20:03:05.802Z,15.70
2023-04-15T20:05:32.906Z,13.80
2023-04-15T20:08:01.477Z,17.60
2023-04-15T20:10:28.622Z,14.77
2023-04-15T20:12:55.598Z,15.27
2023-04-15T20:15:24.013Z,14.23
2023-04-15T20:17:51.619Z,16.67
2023-04-15T20:20:19.081Z,13.73
2023-04-15T20:22:46.175Z,15.70
2023-04-15T20:25:13.707Z,13.98
2023-04-15T20:27:42.245Z,14.95
2023-04-15T20:30:09.736Z,17.70
2023-04-15T20:32:36.810Z,15.38
2023-04-15T20:35:07.721Z,15.48
2023-04-15T20:37:34.824Z,16.30
2023-04-15T20:40:02.255Z,17.63
2023-04-15T20:42:34.522Z,16.75
2023-04-15T20:45:02.124Z,13.68
2023-04-15T20:47:29.562Z,16.08
2023-04-15T20:49:56.787Z,16.83
2023-04-15T20:52:23.820Z,19.35
2023-04-15T20:54:51.354Z,16.35
2023-04-15T20:57:18.564Z,16.63
2023-04-15T20:59:45.493Z,18.23
2023-04-15T21:02:12.602Z,18.38
2023-04-15T21:04:39.678Z,19.08
2023-04-15T21:07:06.695Z,17.70
2023-04-15T21:09:33.676Z,15.52
2023-04-15T21:12:02.322Z,20.75
2023-04-15T21:14:29.951Z,16.10
2023-04-15T21:17:00.011Z,15.05
2023-04-15T21:19:27.062Z,14.85
2023-04-15T21:21:53.957Z,15.98
2023-04-15T21:24:20.909Z,16.85
2023-04-15T21:26:47.827Z,13.65
2023-04-15T21:29:14.907Z,15.50
2023-04-15T21:31:42.274Z,12.32
2023-04-15T21:34:09.614Z,14.05
2023-04-15T21:36:37.628Z,15.90
2023-04-15T21:39:05.049Z,16.40
2023-04-15T21:41:32.876Z,16.52
2023-04-15T21:43:59.867Z,16.17
2023-04-15T21:46:32.689Z,19.70
2023-04-15T21:49:00.441Z,23.90
2023-04-15T21:51:27.829Z,26.25
2023-04-15T21:53:54.858Z,33.80
2023-04-15T21:56:24.399Z,28.08
2023-04-15T21:58:54.659Z,23.23
2023-04-15T22:01:21.589Z,26.55
2023-04-15T22:03:48.899Z,26.77
2023-04-15T22:06:16.466Z,24.13
2023-04-15T22:08:54.814Z,23.60
2023-04-15T22:11:27.209Z,24.80
2023-04-15T22:13:54.917Z,20.02
2023-04-15T22:16:22.085Z,21.60
2023-04-15T22:18:49.191Z,20.45
2023-04-15T22:21:16.453Z,18.60
2023-04-15T22:23:47.450Z,14.25
2023-04-15T22:26:14.756Z,13.93
2023-04-15T22:28:41.984Z,14.90
2023-04-15T22:31:09.067Z,13.43
2023-04-15T22:33:36.132Z,15.02
2023-04-15T22:36:03.200Z,15.98
2023-04-15T22:38:30.515Z,14.85
2023-04-15T22:40:57.506Z,20.15
2023-04-15T22:43:24.423Z,17.60
2023-04-15T22:45:51.538Z,20.55
2023-04-15T22:48:19.126Z,18.30
2023-04-15T22:50:46.306Z,20.10
2023-04-15T22:53:14.933Z,20.38
2023-04-15T22:55:46.701Z,19.33
2023-04-15T22:58:14.632Z,22.83
2023-04-15T23:00:41.692Z,21.20
2023-04-15T23:03:08.689Z,21.60
2023-04-15T23:05:35.794Z,22.02
2023-04-15T23:08:02.843Z,22.25
2023-04-15T23:10:29.738Z,20.65
2023-04-15T23:12:56.763Z,19.92
2023-04-15T23:15:23.700Z,23.13
2023-04-15T23:17:50.836Z,21.85
2023-04-15T23:20:17.940Z,20.85
2023-04-15T23:22:45.065Z,22.27
2023-04-15T23:25:12.021Z,24.35
2023-04-15T23:27:38.909Z,19.98
2023-04-15T23:30:06.966Z,22.15
2023-04-15T23:32:33.967Z,17.17
2023-04-15T23:35:01.113Z,14.30
2023-04-15T23:37:30.009Z,12.20
2023-04-15T23:39:56.931Z,12.13
2023-04-15T23:42:24.294Z,13.52
2023-04-15T23:44:51.396Z,10.98
2023-04-15T23:47:18.343Z,12.80
2023-04-15T23:49:45.485Z,12.85
2023-04-15T23:52:12.599Z,13.75
2023-04-15T23:54:40.206Z,11.95
2023-04-15T23:57:07.155Z,11.02
2023-04-15T23:59:34.071Z,14.30
